CTV884 WIII-WIMN
Flight info
| Callsign | CTV884 |
|---|---|
| Flight time | N/A |
| Altitude | 36000 |
| Route | GOMEL T10 AKPER |
| Aircraft | A320/M-SDE2E3FGHIRWY/LB1 |
Departure
| Time | 2026-05-07 02:27 |
|---|---|
| Airport | Soekarno-Hatta International Airport (WIII) |
Arrival
| Time | N/A |
|---|---|
| Airport | Silangit Airport (WIMN) |
| Time | Latitude | Longitude | Altitude | Speed | Heading |
|---|---|---|---|---|---|
| 2026-05-07 01:55 | -6.13225 | 106.65335 | 38 ft | 0 kts | 321° |
| 2026-05-07 02:12 | -6.13226 | 106.65335 | 38 ft | 0 kts | 321° |
| 2026-05-07 02:17 | -6.13244 | 106.65350 | 38 ft | 4 kts | 321° |
| 2026-05-07 02:17 | -6.13261 | 106.65363 | 38 ft | 4 kts | 320° |
| 2026-05-07 02:17 | -6.13278 | 106.65381 | 38 ft | 4 kts | 283° |
| 2026-05-07 02:18 | -6.13275 | 106.65402 | 38 ft | 4 kts | 249° |
| 2026-05-07 02:18 | -6.13273 | 106.65408 | 38 ft | 0 kts | 249° |
| 2026-05-07 02:20 | -6.13276 | 106.65399 | 38 ft | 5 kts | 249° |
| 2026-05-07 02:20 | -6.13290 | 106.65363 | 38 ft | 5 kts | 249° |
| 2026-05-07 02:20 | -6.13309 | 106.65313 | 38 ft | 9 kts | 249° |
| 2026-05-07 02:20 | -6.13329 | 106.65261 | 38 ft | 7 kts | 249° |
| 2026-05-07 02:21 | -6.13368 | 106.65222 | 38 ft | 10 kts | 193° |
| 2026-05-07 02:21 | -6.13448 | 106.65247 | 38 ft | 15 kts | 160° |
| 2026-05-07 02:21 | -6.13555 | 106.65288 | 38 ft | 17 kts | 158° |
| 2026-05-07 02:21 | -6.13656 | 106.65322 | 39 ft | 15 kts | 185° |
| 2026-05-07 02:22 | -6.13708 | 106.65244 | 39 ft | 13 kts | 248° |
| 2026-05-07 02:22 | -6.13740 | 106.65166 | 39 ft | 13 kts | 248° |
| 2026-05-07 02:22 | -6.13778 | 106.65068 | 39 ft | 17 kts | 248° |
| 2026-05-07 02:22 | -6.13821 | 106.64962 | 37 ft | 16 kts | 248° |
| 2026-05-07 02:23 | -6.13861 | 106.64862 | 39 ft | 15 kts | 248° |
| 2026-05-07 02:23 | -6.13897 | 106.64772 | 39 ft | 13 kts | 248° |
| 2026-05-07 02:23 | -6.13927 | 106.64696 | 39 ft | 11 kts | 248° |
| 2026-05-07 02:23 | -6.13955 | 106.64627 | 39 ft | 12 kts | 248° |
| 2026-05-07 02:24 | -6.13986 | 106.64549 | 39 ft | 11 kts | 248° |
| 2026-05-07 02:24 | -6.14018 | 106.64469 | 37 ft | 14 kts | 248° |
| 2026-05-07 02:24 | -6.14051 | 106.64387 | 39 ft | 12 kts | 248° |
| 2026-05-07 02:24 | -6.14087 | 106.64317 | 39 ft | 11 kts | 224° |
| 2026-05-07 02:25 | -6.14148 | 106.64300 | 40 ft | 8 kts | 177° |
| 2026-05-07 02:25 | -6.14194 | 106.64331 | 41 ft | 10 kts | 124° |
| 2026-05-07 02:25 | -6.14237 | 106.64382 | 41 ft | 9 kts | 131° |
| 2026-05-07 02:25 | -6.14228 | 106.64433 | 38 ft | 7 kts | 67° |
| 2026-05-07 02:26 | -6.14195 | 106.64511 | 39 ft | 31 kts | 68° |
| 2026-05-07 02:26 | -6.14024 | 106.64944 | 39 ft | 99 kts | 68° |
| 2026-05-07 02:26 | -6.13700 | 106.65756 | 39 ft | 150 kts | 68° |
| 2026-05-07 02:26 | -6.13424 | 106.66459 | 66 ft | 175 kts | 69° |
| 2026-05-07 02:27 | -6.12974 | 106.67609 | 600 ft | 179 kts | 71° |
| 2026-05-07 02:27 | -6.12508 | 106.68775 | 1262 ft | 184 kts | 69° |
| 2026-05-07 02:27 | -6.12006 | 106.70028 | 1527 ft | 204 kts | 69° |
| 2026-05-07 02:27 | -6.11449 | 106.71426 | 1822 ft | 224 kts | 69° |
| 2026-05-07 02:28 | -6.11119 | 106.73438 | 2790 ft | 226 kts | 107° |
| 2026-05-07 02:28 | -6.11624 | 106.74368 | 3348 ft | 227 kts | 132° |
| 2026-05-07 02:28 | -6.12843 | 106.75386 | 4158 ft | 229 kts | 142° |
| 2026-05-07 02:28 | -6.14840 | 106.76122 | 5111 ft | 239 kts | 173° |
| 2026-05-07 02:29 | -6.16518 | 106.75957 | 5826 ft | 248 kts | 194° |
| 2026-05-07 02:29 | -6.18062 | 106.75160 | 6522 ft | 255 kts | 218° |
| 2026-05-07 02:29 | -6.19205 | 106.73782 | 7213 ft | 261 kts | 242° |
| 2026-05-07 02:29 | -6.19747 | 106.72031 | 7913 ft | 265 kts | 258° |
| 2026-05-07 02:30 | -6.20111 | 106.70212 | 8610 ft | 267 kts | 258° |
| 2026-05-07 02:30 | -6.20484 | 106.68370 | 9191 ft | 276 kts | 258° |
| 2026-05-07 02:30 | -6.20883 | 106.66418 | 9565 ft | 291 kts | 258° |
| 2026-05-07 02:30 | -6.21155 | 106.65091 | 9967 ft | 294 kts | 258° |
| 2026-05-07 02:31 | -6.21307 | 106.62300 | 10479 ft | 314 kts | 285° |
| 2026-05-07 02:31 | -6.20729 | 106.60945 | 10587 ft | 326 kts | 305° |
| 2026-05-07 02:31 | -6.18384 | 106.58885 | 10787 ft | 349 kts | 328° |
| 2026-05-07 02:31 | -6.16321 | 106.57531 | 11246 ft | 358 kts | 328° |
| 2026-05-07 02:32 | -6.14234 | 106.56149 | 11837 ft | 361 kts | 327° |
| 2026-05-07 02:32 | -6.12146 | 106.54722 | 12442 ft | 364 kts | 326° |
| 2026-05-07 02:32 | -6.10062 | 106.53254 | 13019 ft | 368 kts | 326° |
| 2026-05-07 02:32 | -6.07974 | 106.51751 | 13598 ft | 371 kts | 325° |
| 2026-05-07 02:33 | -6.05875 | 106.50223 | 14138 ft | 374 kts | 325° |
| 2026-05-07 02:33 | -6.04474 | 106.49203 | 14497 ft | 376 kts | 325° |
| 2026-05-07 02:33 | -6.01620 | 106.47129 | 15203 ft | 381 kts | 325° |
| 2026-05-07 02:33 | -5.99464 | 106.45564 | 15718 ft | 384 kts | 325° |
| 2026-05-07 02:34 | -5.98027 | 106.44522 | 16048 ft | 386 kts | 325° |
| 2026-05-07 02:34 | -5.95095 | 106.42400 | 16695 ft | 390 kts | 325° |
| 2026-05-07 02:34 | -5.92881 | 106.40800 | 17170 ft | 394 kts | 325° |
| 2026-05-07 02:34 | -5.90649 | 106.39190 | 17632 ft | 396 kts | 325° |
| 2026-05-07 02:35 | -5.88399 | 106.37569 | 18093 ft | 399 kts | 325° |
| 2026-05-07 02:35 | -5.86140 | 106.35941 | 18530 ft | 402 kts | 325° |
| 2026-05-07 02:35 | -5.83855 | 106.34295 | 18961 ft | 405 kts | 325° |
| 2026-05-07 02:35 | -5.81561 | 106.32642 | 19381 ft | 407 kts | 325° |
| 2026-05-07 02:36 | -5.79258 | 106.30983 | 19789 ft | 410 kts | 325° |
| 2026-05-07 02:36 | -5.76949 | 106.29322 | 20180 ft | 413 kts | 325° |
| 2026-05-07 02:36 | -5.74610 | 106.27635 | 20565 ft | 415 kts | 325° |
| 2026-05-07 02:36 | -5.72272 | 106.25913 | 20938 ft | 418 kts | 324° |
| 2026-05-07 02:37 | -5.69964 | 106.24119 | 21306 ft | 421 kts | 322° |
| 2026-05-07 02:37 | -5.67677 | 106.22274 | 21690 ft | 422 kts | 321° |
| 2026-05-07 02:37 | -5.65398 | 106.20410 | 22065 ft | 424 kts | 321° |
| 2026-05-07 02:37 | -5.63103 | 106.18534 | 22419 ft | 426 kts | 321° |
| 2026-05-07 02:38 | -5.60789 | 106.16658 | 22740 ft | 429 kts | 322° |
| 2026-05-07 02:38 | -5.58455 | 106.14783 | 23075 ft | 431 kts | 322° |
| 2026-05-07 02:38 | -5.56103 | 106.12906 | 23402 ft | 433 kts | 322° |
| 2026-05-07 02:38 | -5.53738 | 106.11024 | 23726 ft | 435 kts | 322° |
| 2026-05-07 02:39 | -5.51358 | 106.09135 | 23895 ft | 437 kts | 322° |
| 2026-05-07 02:39 | -5.48942 | 106.07273 | 24201 ft | 439 kts | 324° |
| 2026-05-07 02:39 | -5.46483 | 106.05452 | 24514 ft | 440 kts | 324° |
| 2026-05-07 02:39 | -5.43993 | 106.03650 | 24802 ft | 442 kts | 325° |
| 2026-05-07 02:40 | -5.41484 | 106.01849 | 25084 ft | 444 kts | 325° |
| 2026-05-07 02:40 | -5.38965 | 106.00038 | 25358 ft | 446 kts | 325° |
| 2026-05-07 02:40 | -5.36439 | 105.98211 | 25618 ft | 449 kts | 324° |
| 2026-05-07 02:40 | -5.33904 | 105.96367 | 25863 ft | 451 kts | 324° |
| 2026-05-07 02:41 | -5.31362 | 105.94508 | 26123 ft | 453 kts | 324° |
| 2026-05-07 02:41 | -5.28810 | 105.92638 | 26367 ft | 455 kts | 324° |
| 2026-05-07 02:41 | -5.26246 | 105.90757 | 26615 ft | 457 kts | 324° |
| 2026-05-07 02:41 | -5.23675 | 105.88871 | 26871 ft | 459 kts | 324° |
| 2026-05-07 02:42 | -5.21092 | 105.86979 | 27090 ft | 461 kts | 324° |
| 2026-05-07 02:42 | -5.18501 | 105.85083 | 27339 ft | 462 kts | 324° |
| 2026-05-07 02:42 | -5.15927 | 105.83203 | 27567 ft | 464 kts | 324° |
| 2026-05-07 02:42 | -5.13277 | 105.81268 | 27797 ft | 466 kts | 324° |
| 2026-05-07 02:43 | -5.10649 | 105.79348 | 28032 ft | 468 kts | 324° |
| 2026-05-07 02:43 | -5.08013 | 105.77422 | 28263 ft | 470 kts | 324° |
| 2026-05-07 02:43 | -5.05367 | 105.75492 | 28485 ft | 471 kts | 324° |
| 2026-05-07 02:43 | -5.02711 | 105.73553 | 28709 ft | 473 kts | 324° |
| 2026-05-07 02:44 | -5.00048 | 105.71609 | 28913 ft | 474 kts | 324° |
| 2026-05-07 02:44 | -4.97383 | 105.69664 | 29125 ft | 475 kts | 324° |
| 2026-05-07 02:44 | -4.94705 | 105.67709 | 29340 ft | 477 kts | 324° |
| 2026-05-07 02:44 | -4.92019 | 105.65749 | 29515 ft | 478 kts | 324° |
| 2026-05-07 02:45 | -4.89324 | 105.63782 | 29712 ft | 480 kts | 324° |
| 2026-05-07 02:45 | -4.87534 | 105.62475 | 29830 ft | 481 kts | 324° |
| 2026-05-07 02:45 | -4.84826 | 105.60500 | 30035 ft | 482 kts | 324° |
| 2026-05-07 02:45 | -4.82110 | 105.58519 | 30219 ft | 483 kts | 324° |
| 2026-05-07 02:46 | -4.79386 | 105.56532 | 30412 ft | 485 kts | 324° |
| 2026-05-07 02:46 | -4.76661 | 105.54544 | 30686 ft | 484 kts | 324° |
| 2026-05-07 02:46 | -4.73944 | 105.52563 | 30988 ft | 482 kts | 324° |
| 2026-05-07 02:46 | -4.71234 | 105.50585 | 31263 ft | 481 kts | 324° |
| 2026-05-07 02:47 | -4.68528 | 105.48610 | 31549 ft | 480 kts | 324° |
| 2026-05-07 02:47 | -4.64952 | 105.46002 | 31912 ft | 479 kts | 324° |
| 2026-05-07 02:47 | -4.62261 | 105.44039 | 32180 ft | 478 kts | 324° |
| 2026-05-07 02:47 | -4.59575 | 105.42079 | 32463 ft | 477 kts | 324° |
| 2026-05-07 02:48 | -4.56894 | 105.40123 | 32721 ft | 476 kts | 324° |
| 2026-05-07 02:48 | -4.55088 | 105.38806 | 32913 ft | 476 kts | 324° |
| 2026-05-07 02:48 | -4.52451 | 105.36886 | 33185 ft | 475 kts | 324° |
| 2026-05-07 02:48 | -4.49782 | 105.34943 | 33445 ft | 474 kts | 324° |
| 2026-05-07 02:49 | -4.47112 | 105.32997 | 33706 ft | 473 kts | 324° |
| 2026-05-07 02:49 | -4.44457 | 105.31064 | 33983 ft | 472 kts | 324° |
| 2026-05-07 02:49 | -4.41803 | 105.29128 | 34247 ft | 471 kts | 324° |
| 2026-05-07 02:49 | -4.39155 | 105.27197 | 34493 ft | 470 kts | 324° |
| 2026-05-07 02:50 | -4.36511 | 105.25272 | 34749 ft | 469 kts | 324° |
| 2026-05-07 02:50 | -4.32984 | 105.22704 | 35060 ft | 468 kts | 324° |
| 2026-05-07 02:50 | -4.30355 | 105.20788 | 35307 ft | 467 kts | 324° |
| 2026-05-07 02:50 | -4.27732 | 105.18874 | 35530 ft | 466 kts | 324° |
| 2026-05-07 02:51 | -4.25114 | 105.16963 | 35746 ft | 465 kts | 324° |
| 2026-05-07 02:51 | -4.22500 | 105.15055 | 35889 ft | 465 kts | 324° |
| 2026-05-07 02:51 | -4.18163 | 105.11896 | 35914 ft | 463 kts | 324° |
| 2026-05-07 02:52 | -4.12953 | 105.08112 | 35913 ft | 462 kts | 324° |
| 2026-05-07 02:52 | -4.07199 | 105.03362 | 35914 ft | 462 kts | 317° |
| 2026-05-07 02:53 | -4.02511 | 104.98956 | 35915 ft | 462 kts | 317° |
| 2026-05-07 02:53 | -3.98609 | 104.95298 | 35915 ft | 462 kts | 317° |
| 2026-05-07 02:54 | -3.93920 | 104.90913 | 35900 ft | 461 kts | 317° |
| 2026-05-07 02:54 | -3.89227 | 104.86536 | 35901 ft | 460 kts | 317° |
| 2026-05-07 02:55 | -3.84546 | 104.82164 | 35896 ft | 459 kts | 317° |
| 2026-05-07 02:55 | -3.80995 | 104.78835 | 35894 ft | 461 kts | 317° |
| 2026-05-07 02:56 | -3.76060 | 104.74754 | 35937 ft | 460 kts | 329° |
| 2026-05-07 02:56 | -3.73427 | 104.72941 | 35924 ft | 461 kts | 318° |
| 2026-05-07 02:56 | -3.71082 | 104.70755 | 35910 ft | 461 kts | 317° |
| 2026-05-07 02:57 | -3.66396 | 104.66351 | 35907 ft | 462 kts | 317° |
| 2026-05-07 02:57 | -3.61705 | 104.61942 | 35905 ft | 463 kts | 317° |
| 2026-05-07 02:58 | -3.57018 | 104.57517 | 35907 ft | 463 kts | 317° |
| 2026-05-07 02:58 | -3.53120 | 104.53832 | 35908 ft | 464 kts | 317° |
| 2026-05-07 02:59 | -3.48427 | 104.49402 | 35909 ft | 464 kts | 317° |
| 2026-05-07 02:59 | -3.43738 | 104.44978 | 35908 ft | 463 kts | 317° |
| 2026-05-07 03:00 | -3.38301 | 104.39859 | 35899 ft | 462 kts | 317° |
| 2026-05-07 03:00 | -3.33618 | 104.35450 | 35899 ft | 462 kts | 317° |
| 2026-05-07 03:01 | -3.28933 | 104.31034 | 35901 ft | 463 kts | 317° |
| 2026-05-07 03:01 | -3.24247 | 104.26608 | 35904 ft | 463 kts | 317° |
| 2026-05-07 03:02 | -3.19552 | 104.22179 | 35905 ft | 464 kts | 317° |
| 2026-05-07 03:02 | -3.14846 | 104.17750 | 35909 ft | 465 kts | 317° |
| 2026-05-07 03:03 | -3.10139 | 104.13314 | 35912 ft | 465 kts | 317° |
| 2026-05-07 03:03 | -3.05427 | 104.08874 | 35917 ft | 465 kts | 317° |
| 2026-05-07 03:04 | -3.00715 | 104.04443 | 35919 ft | 465 kts | 317° |
| 2026-05-07 03:04 | -2.96010 | 104.00003 | 35922 ft | 465 kts | 317° |
| 2026-05-07 03:05 | -2.91299 | 103.95570 | 35920 ft | 465 kts | 317° |
| 2026-05-07 03:05 | -2.86591 | 103.91145 | 35920 ft | 465 kts | 317° |
| 2026-05-07 03:06 | -2.82675 | 103.87455 | 35917 ft | 465 kts | 317° |
| 2026-05-07 03:06 | -2.77175 | 103.82271 | 35916 ft | 465 kts | 317° |
| 2026-05-07 03:07 | -2.72461 | 103.77840 | 35918 ft | 465 kts | 317° |
| 2026-05-07 03:07 | -2.67753 | 103.73405 | 35917 ft | 465 kts | 317° |
| 2026-05-07 03:08 | -2.63043 | 103.68973 | 35918 ft | 465 kts | 317° |
| 2026-05-07 03:08 | -2.58333 | 103.64542 | 35916 ft | 465 kts | 317° |
| 2026-05-07 03:09 | -2.53658 | 103.60131 | 35923 ft | 464 kts | 317° |
| 2026-05-07 03:09 | -2.48960 | 103.55712 | 35912 ft | 463 kts | 317° |
| 2026-05-07 03:10 | -2.44272 | 103.51308 | 35906 ft | 462 kts | 317° |
| 2026-05-07 03:10 | -2.39596 | 103.46911 | 35902 ft | 461 kts | 317° |
| 2026-05-07 03:11 | -2.34921 | 103.42517 | 35897 ft | 461 kts | 316° |
| 2026-05-07 03:11 | -2.30253 | 103.38122 | 35891 ft | 461 kts | 317° |
| 2026-05-07 03:12 | -2.25571 | 103.33747 | 35887 ft | 461 kts | 317° |
| 2026-05-07 03:12 | -2.20873 | 103.29384 | 35881 ft | 461 kts | 317° |
| 2026-05-07 03:13 | -2.16178 | 103.25009 | 35882 ft | 461 kts | 317° |
| 2026-05-07 03:13 | -2.11490 | 103.20622 | 35880 ft | 462 kts | 317° |
| 2026-05-07 03:14 | -2.06806 | 103.16232 | 35882 ft | 462 kts | 317° |
| 2026-05-07 03:15 | -1.99764 | 103.09662 | 35883 ft | 462 kts | 317° |
| 2026-05-07 03:15 | -1.95069 | 103.05280 | 35882 ft | 462 kts | 317° |
| 2026-05-07 03:16 | -1.90373 | 103.00889 | 35881 ft | 462 kts | 317° |
| 2026-05-07 03:16 | -1.85672 | 102.96498 | 35882 ft | 463 kts | 317° |
| 2026-05-07 03:17 | -1.80964 | 102.92112 | 35882 ft | 463 kts | 317° |
| 2026-05-07 03:17 | -1.76255 | 102.87720 | 35884 ft | 463 kts | 317° |
| 2026-05-07 03:18 | -1.71549 | 102.83323 | 35887 ft | 463 kts | 317° |
| 2026-05-07 03:18 | -1.66874 | 102.78956 | 35885 ft | 463 kts | 317° |
| 2026-05-07 03:19 | -1.62159 | 102.74559 | 35886 ft | 464 kts | 317° |
| 2026-05-07 03:19 | -1.57442 | 102.70160 | 35888 ft | 464 kts | 317° |
| 2026-05-07 03:20 | -1.52722 | 102.65759 | 35891 ft | 464 kts | 317° |
| 2026-05-07 03:20 | -1.47997 | 102.61350 | 35891 ft | 465 kts | 317° |
| 2026-05-07 03:21 | -1.43276 | 102.56929 | 35890 ft | 465 kts | 317° |
| 2026-05-07 03:21 | -1.38544 | 102.52511 | 35892 ft | 466 kts | 317° |
| 2026-05-07 03:22 | -1.33810 | 102.48089 | 35891 ft | 466 kts | 317° |
| 2026-05-07 03:22 | -1.29076 | 102.43667 | 35893 ft | 466 kts | 317° |
| 2026-05-07 03:23 | -1.24349 | 102.39249 | 35893 ft | 466 kts | 317° |
| 2026-05-07 03:23 | -1.19619 | 102.34832 | 35890 ft | 465 kts | 317° |
| 2026-05-07 03:24 | -1.14891 | 102.30417 | 35889 ft | 465 kts | 317° |
| 2026-05-07 03:24 | -1.10188 | 102.26038 | 35886 ft | 465 kts | 317° |
| 2026-05-07 03:25 | -1.05463 | 102.21628 | 35889 ft | 465 kts | 317° |
| 2026-05-07 03:25 | -1.00742 | 102.17214 | 35886 ft | 465 kts | 317° |
| 2026-05-07 03:26 | -0.96017 | 102.12797 | 35885 ft | 465 kts | 317° |
| 2026-05-07 03:26 | -0.91287 | 102.08384 | 35885 ft | 465 kts | 317° |
| 2026-05-07 03:27 | -0.86559 | 102.03970 | 35886 ft | 465 kts | 317° |
| 2026-05-07 03:27 | -0.81834 | 101.99559 | 35883 ft | 465 kts | 317° |
| 2026-05-07 03:28 | -0.77110 | 101.95143 | 35881 ft | 465 kts | 317° |
| 2026-05-07 03:28 | -0.72377 | 101.90729 | 35881 ft | 465 kts | 317° |
| 2026-05-07 03:29 | -0.67636 | 101.86322 | 35885 ft | 466 kts | 317° |
| 2026-05-07 03:29 | -0.62899 | 101.81904 | 35882 ft | 466 kts | 317° |
| 2026-05-07 03:30 | -0.58168 | 101.77476 | 35882 ft | 466 kts | 317° |
| 2026-05-07 03:30 | -0.53433 | 101.73049 | 35882 ft | 466 kts | 317° |
| 2026-05-07 03:31 | -0.49492 | 101.69376 | 35883 ft | 466 kts | 317° |
| 2026-05-07 03:31 | -0.44751 | 101.64965 | 35866 ft | 466 kts | 317° |
| 2026-05-07 03:32 | -0.39216 | 101.59805 | 35880 ft | 466 kts | 317° |
| 2026-05-07 03:32 | -0.34481 | 101.55380 | 35882 ft | 466 kts | 317° |
| 2026-05-07 03:33 | -0.29782 | 101.50985 | 35881 ft | 466 kts | 317° |
| 2026-05-07 03:33 | -0.25047 | 101.46566 | 35874 ft | 466 kts | 317° |
| 2026-05-07 03:34 | -0.20314 | 101.42144 | 35880 ft | 466 kts | 317° |
| 2026-05-07 03:34 | -0.16339 | 101.38444 | 35871 ft | 466 kts | 317° |
| 2026-05-07 03:35 | -0.11634 | 101.34060 | 35880 ft | 466 kts | 317° |
| 2026-05-07 03:35 | -0.06901 | 101.29640 | 35881 ft | 466 kts | 317° |
| 2026-05-07 03:36 | -0.01367 | 101.24473 | 35884 ft | 466 kts | 317° |
| 2026-05-07 03:36 | 0.03375 | 101.20054 | 35885 ft | 466 kts | 317° |
| 2026-05-07 03:37 | 0.08109 | 101.15627 | 35887 ft | 466 kts | 317° |
| 2026-05-07 03:37 | 0.12843 | 101.11204 | 35889 ft | 466 kts | 317° |
| 2026-05-07 03:38 | 0.17583 | 101.06789 | 35889 ft | 466 kts | 317° |
| 2026-05-07 03:38 | 0.22319 | 101.02369 | 35891 ft | 466 kts | 317° |
| 2026-05-07 03:39 | 0.27055 | 100.97952 | 35890 ft | 465 kts | 317° |
| 2026-05-07 03:39 | 0.31790 | 100.93540 | 35890 ft | 466 kts | 317° |
| 2026-05-07 03:40 | 0.36520 | 100.89122 | 35887 ft | 465 kts | 317° |
| 2026-05-07 03:40 | 0.41245 | 100.84702 | 35886 ft | 465 kts | 317° |
| 2026-05-07 03:41 | 0.45173 | 100.81033 | 35887 ft | 466 kts | 317° |
| 2026-05-07 03:41 | 0.49910 | 100.76622 | 35895 ft | 465 kts | 317° |
| 2026-05-07 03:42 | 0.54644 | 100.72215 | 35897 ft | 465 kts | 317° |
| 2026-05-07 03:42 | 0.59366 | 100.67803 | 35896 ft | 465 kts | 317° |
| 2026-05-07 03:43 | 0.64084 | 100.63392 | 35897 ft | 464 kts | 317° |
| 2026-05-07 03:43 | 0.68749 | 100.59045 | 35896 ft | 464 kts | 317° |
| 2026-05-07 03:44 | 0.73467 | 100.54641 | 35900 ft | 464 kts | 317° |
| 2026-05-07 03:44 | 0.78186 | 100.50233 | 35904 ft | 464 kts | 317° |
| 2026-05-07 03:45 | 0.82900 | 100.45821 | 35907 ft | 464 kts | 317° |
| 2026-05-07 03:45 | 0.87622 | 100.41417 | 35913 ft | 464 kts | 317° |
| 2026-05-07 03:46 | 0.92346 | 100.37007 | 35920 ft | 465 kts | 317° |
| 2026-05-07 03:46 | 0.97075 | 100.32596 | 35928 ft | 465 kts | 317° |
| 2026-05-07 03:47 | 1.01806 | 100.28184 | 35926 ft | 465 kts | 317° |
| 2026-05-07 03:47 | 1.06534 | 100.23766 | 35514 ft | 465 kts | 317° |
| 2026-05-07 03:47 | 1.08898 | 100.21560 | 35023 ft | 465 kts | 317° |
| 2026-05-07 03:48 | 1.11261 | 100.19348 | 34524 ft | 466 kts | 316° |
| 2026-05-07 03:48 | 1.13629 | 100.17130 | 34017 ft | 467 kts | 316° |
| 2026-05-07 03:48 | 1.16003 | 100.14908 | 33495 ft | 468 kts | 316° |
| 2026-05-07 03:48 | 1.18380 | 100.12691 | 32920 ft | 467 kts | 317° |
| 2026-05-07 03:49 | 1.20748 | 100.10487 | 32337 ft | 464 kts | 317° |
| 2026-05-07 03:49 | 1.23098 | 100.08295 | 31768 ft | 461 kts | 317° |
| 2026-05-07 03:49 | 1.25432 | 100.06116 | 31171 ft | 458 kts | 317° |
| 2026-05-07 03:49 | 1.27754 | 100.03949 | 30565 ft | 456 kts | 317° |
| 2026-05-07 03:50 | 1.30062 | 100.01791 | 29967 ft | 453 kts | 317° |
| 2026-05-07 03:50 | 1.32358 | 99.99645 | 29369 ft | 451 kts | 317° |
| 2026-05-07 03:50 | 1.34644 | 99.97511 | 28757 ft | 449 kts | 317° |
| 2026-05-07 03:50 | 1.36918 | 99.95388 | 28166 ft | 446 kts | 317° |
| 2026-05-07 03:51 | 1.39178 | 99.93275 | 27564 ft | 444 kts | 318° |
| 2026-05-07 03:51 | 1.41424 | 99.91179 | 26972 ft | 441 kts | 318° |
| 2026-05-07 03:51 | 1.43663 | 99.89090 | 26362 ft | 439 kts | 318° |
| 2026-05-07 03:51 | 1.45891 | 99.87015 | 25762 ft | 436 kts | 318° |
| 2026-05-07 03:52 | 1.48105 | 99.84951 | 25162 ft | 434 kts | 319° |
| 2026-05-07 03:52 | 1.50305 | 99.82897 | 24560 ft | 432 kts | 319° |
| 2026-05-07 03:52 | 1.52487 | 99.80856 | 24012 ft | 428 kts | 319° |
| 2026-05-07 03:52 | 1.54748 | 99.78959 | 23504 ft | 421 kts | 326° |
| 2026-05-07 03:53 | 1.57100 | 99.77253 | 23070 ft | 415 kts | 326° |
| 2026-05-07 03:53 | 1.59422 | 99.75574 | 22644 ft | 409 kts | 326° |
| 2026-05-07 03:53 | 1.61714 | 99.73920 | 22236 ft | 403 kts | 326° |
| 2026-05-07 03:53 | 1.63973 | 99.72291 | 21858 ft | 398 kts | 326° |
| 2026-05-07 03:54 | 1.66206 | 99.70681 | 21479 ft | 394 kts | 326° |
| 2026-05-07 03:54 | 1.68420 | 99.69083 | 21109 ft | 391 kts | 326° |
| 2026-05-07 03:54 | 1.70618 | 99.67500 | 20734 ft | 388 kts | 326° |
| 2026-05-07 03:54 | 1.72802 | 99.65927 | 20358 ft | 386 kts | 326° |
| 2026-05-07 03:55 | 1.74969 | 99.64362 | 19982 ft | 383 kts | 326° |
| 2026-05-07 03:55 | 1.77124 | 99.62809 | 19598 ft | 381 kts | 326° |
| 2026-05-07 03:55 | 1.79264 | 99.61265 | 19214 ft | 378 kts | 326° |
| 2026-05-07 03:55 | 1.81385 | 99.59732 | 18809 ft | 375 kts | 326° |
| 2026-05-07 03:56 | 1.83488 | 99.58203 | 18415 ft | 373 kts | 326° |
| 2026-05-07 03:56 | 1.85580 | 99.56681 | 18005 ft | 371 kts | 326° |
| 2026-05-07 03:56 | 1.87662 | 99.55163 | 17578 ft | 369 kts | 326° |
| 2026-05-07 03:56 | 1.89723 | 99.53659 | 17154 ft | 366 kts | 326° |
| 2026-05-07 03:57 | 1.91779 | 99.52159 | 16730 ft | 364 kts | 326° |
| 2026-05-07 03:57 | 1.93814 | 99.50675 | 16301 ft | 362 kts | 326° |
| 2026-05-07 03:57 | 1.95842 | 99.49196 | 15875 ft | 360 kts | 326° |
| 2026-05-07 03:57 | 1.97863 | 99.47722 | 15446 ft | 358 kts | 326° |
| 2026-05-07 03:58 | 1.99872 | 99.46258 | 15022 ft | 356 kts | 326° |
| 2026-05-07 03:58 | 2.01866 | 99.44803 | 14597 ft | 355 kts | 326° |
| 2026-05-07 03:58 | 2.03860 | 99.43351 | 14171 ft | 353 kts | 326° |
| 2026-05-07 03:58 | 2.05838 | 99.41909 | 13749 ft | 351 kts | 325° |
| 2026-05-07 03:59 | 2.07812 | 99.40473 | 13281 ft | 351 kts | 326° |
| 2026-05-07 03:59 | 2.09779 | 99.39043 | 12785 ft | 350 kts | 326° |
| 2026-05-07 03:59 | 2.11751 | 99.37611 | 12283 ft | 349 kts | 325° |
| 2026-05-07 03:59 | 2.13708 | 99.36186 | 11789 ft | 348 kts | 325° |
| 2026-05-07 04:00 | 2.15669 | 99.34756 | 11282 ft | 348 kts | 325° |
| 2026-05-07 04:00 | 2.17617 | 99.33334 | 10785 ft | 347 kts | 324° |
| 2026-05-07 04:00 | 2.19561 | 99.31912 | 10277 ft | 346 kts | 324° |
| 2026-05-07 04:00 | 2.21346 | 99.30368 | 9860 ft | 341 kts | 311° |
| 2026-05-07 04:01 | 2.22609 | 99.28400 | 9557 ft | 334 kts | 294° |
| 2026-05-07 04:01 | 2.23310 | 99.26220 | 9285 ft | 325 kts | 285° |
| 2026-05-07 04:01 | 2.23908 | 99.24070 | 9025 ft | 307 kts | 286° |
| 2026-05-07 04:01 | 2.24466 | 99.22076 | 8795 ft | 288 kts | 286° |
| 2026-05-07 04:02 | 2.24931 | 99.20188 | 8555 ft | 273 kts | 279° |
| 2026-05-07 04:02 | 2.25099 | 99.18364 | 8235 ft | 262 kts | 272° |
| 2026-05-07 04:02 | 2.25158 | 99.16574 | 7891 ft | 254 kts | 271° |
| 2026-05-07 04:02 | 2.25226 | 99.14832 | 7562 ft | 246 kts | 271° |
| 2026-05-07 04:03 | 2.25302 | 99.13181 | 7245 ft | 231 kts | 271° |
| 2026-05-07 04:03 | 2.25375 | 99.11617 | 6968 ft | 218 kts | 270° |
| 2026-05-07 04:03 | 2.25442 | 99.10151 | 6668 ft | 205 kts | 270° |
| 2026-05-07 04:03 | 2.25505 | 99.08785 | 6405 ft | 190 kts | 270° |
| 2026-05-07 04:04 | 2.25564 | 99.07507 | 6177 ft | 175 kts | 270° |
| 2026-05-07 04:04 | 2.25618 | 99.06332 | 5929 ft | 165 kts | 271° |
| 2026-05-07 04:04 | 2.25669 | 99.05208 | 5719 ft | 160 kts | 271° |
| 2026-05-07 04:04 | 2.25719 | 99.04107 | 5511 ft | 158 kts | 271° |
| 2026-05-07 04:05 | 2.25770 | 99.03015 | 5298 ft | 157 kts | 272° |
| 2026-05-07 04:05 | 2.25819 | 99.01928 | 5095 ft | 157 kts | 271° |
| 2026-05-07 04:05 | 2.25861 | 99.00843 | 4916 ft | 156 kts | 271° |
| 2026-05-07 04:05 | 2.25918 | 98.99761 | 4699 ft | 156 kts | 271° |
| 2026-05-07 04:06 | 2.25962 | 98.98756 | 4679 ft | 135 kts | 272° |
| 2026-05-07 04:06 | 2.26011 | 98.97747 | 5179 ft | 149 kts | 272° |
| 2026-05-07 04:06 | 2.26067 | 98.96708 | 5941 ft | 146 kts | 272° |
| 2026-05-07 04:06 | 2.26057 | 98.95702 | 6314 ft | 150 kts | 250° |
| 2026-05-07 04:07 | 2.25302 | 98.94930 | 6293 ft | 178 kts | 194° |
| 2026-05-07 04:07 | 2.24007 | 98.95090 | 6234 ft | 206 kts | 149° |
| 2026-05-07 04:07 | 2.23109 | 98.96265 | 6247 ft | 230 kts | 108° |
| 2026-05-07 04:07 | 2.22889 | 98.97898 | 6682 ft | 243 kts | 92° |
| 2026-05-07 04:08 | 2.22911 | 98.99599 | 7435 ft | 246 kts | 89° |
| 2026-05-07 04:08 | 2.22977 | 99.01314 | 8173 ft | 249 kts | 89° |
| 2026-05-07 04:08 | 2.23012 | 99.02463 | 8658 ft | 251 kts | 90° |
| 2026-05-07 04:08 | 2.23033 | 99.03620 | 9133 ft | 252 kts | 91° |
| 2026-05-07 04:09 | 2.23034 | 99.05992 | 9549 ft | 255 kts | 91° |
| 2026-05-07 04:09 | 2.23006 | 99.07759 | 9595 ft | 254 kts | 92° |
| 2026-05-07 04:09 | 2.22977 | 99.08928 | 9609 ft | 254 kts | 92° |
| 2026-05-07 04:09 | 2.22906 | 99.11286 | 9607 ft | 254 kts | 93° |
| 2026-05-07 04:10 | 2.22866 | 99.12455 | 9606 ft | 254 kts | 93° |
| 2026-05-07 04:10 | 2.22762 | 99.15410 | 9610 ft | 254 kts | 93° |
| 2026-05-07 04:10 | 2.22702 | 99.17169 | 9614 ft | 254 kts | 93° |
| 2026-05-07 04:10 | 2.22681 | 99.17768 | 9614 ft | 254 kts | 93° |
| 2026-05-07 04:11 | 2.22678 | 99.17856 | 9614 ft | 254 kts | 93° |